createdAt,value
2023-04-21T00:01:22.211Z,14.55
2023-04-21T00:03:50.642Z,14.23
2023-04-21T00:06:22.384Z,13.98
2023-04-21T00:08:49.682Z,14.48
2023-04-21T00:11:16.914Z,15.27
2023-04-21T00:13:44.143Z,14.73
2023-04-21T00:16:11.558Z,15.48
2023-04-21T00:18:40.103Z,13.48
2023-04-21T00:21:07.304Z,14.77
2023-04-21T00:23:34.508Z,16.00
2023-04-21T00:26:02.613Z,14.73
2023-04-21T00:28:29.906Z,13.23
2023-04-21T00:30:57.144Z,12.68
2023-04-21T00:33:24.425Z,13.85
2023-04-21T00:35:54.300Z,14.55
2023-04-21T00:38:21.514Z,14.32
2023-04-21T00:40:48.768Z,12.52
2023-04-21T00:43:16.102Z,15.70
2023-04-21T00:45:45.835Z,14.32
2023-04-21T00:48:13.055Z,13.60
2023-04-21T00:50:41.022Z,11.95
2023-04-21T00:53:09.584Z,12.40
2023-04-21T00:55:36.757Z,12.50
2023-04-21T00:58:04.078Z,12.05
2023-04-21T01:00:31.674Z,13.20
2023-04-21T01:02:59.036Z,12.90
2023-04-21T01:05:26.276Z,12.10
2023-04-21T01:07:53.538Z,12.45
2023-04-21T01:10:22.055Z,12.50
2023-04-21T01:12:49.285Z,11.70
2023-04-21T01:15:16.850Z,12.27
2023-04-21T01:17:45.153Z,11.60
2023-04-21T01:20:13.219Z,12.20
2023-04-21T01:22:42.550Z,11.63
2023-04-21T01:25:10.083Z,8.57
2023-04-21T01:27:37.393Z,12.52
2023-04-21T01:30:07.164Z,12.55
2023-04-21T01:32:34.489Z,12.95
2023-04-21T01:35:01.718Z,11.75
2023-04-21T01:37:29.351Z,13.63
2023-04-21T01:39:58.303Z,10.77
2023-04-21T01:42:26.166Z,12.70
2023-04-21T01:44:54.480Z,12.52
2023-04-21T01:47:21.721Z,13.13
2023-04-21T01:49:48.932Z,12.50
2023-04-21T01:52:16.174Z,11.35
2023-04-21T01:54:43.391Z,11.82
2023-04-21T01:57:11.959Z,10.25
2023-04-21T01:59:39.264Z,11.60
2023-04-21T02:02:06.673Z,12.80
2023-04-21T02:04:34.123Z,11.20
2023-04-21T02:07:01.733Z,12.10
2023-04-21T02:09:28.930Z,12.32
2023-04-21T02:11:57.014Z,10.50
2023-04-21T02:14:25.604Z,11.65
2023-04-21T02:16:53.135Z,12.80
2023-04-21T02:19:20.772Z,12.82
2023-04-21T02:21:48.257Z,10.02
2023-04-21T02:24:15.748Z,9.88
2023-04-21T02:26:42.966Z,10.35
2023-04-21T02:29:10.156Z,11.15
2023-04-21T02:31:50.113Z,9.85
2023-04-21T02:34:25.826Z,12.10
2023-04-21T02:36:52.999Z,10.70
2023-04-21T02:39:20.380Z,12.50
2023-04-21T02:41:47.651Z,10.50
2023-04-21T02:44:14.857Z,10.32
2023-04-21T02:46:43.418Z,10.35
2023-04-21T02:49:10.937Z,10.43
2023-04-21T02:51:38.242Z,9.98
2023-04-21T02:54:05.737Z,10.10
2023-04-21T02:56:34.452Z,9.48
2023-04-21T02:59:01.690Z,11.98
2023-04-21T03:01:28.895Z,9.57
2023-04-21T03:03:57.548Z,9.90
2023-04-21T03:06:24.834Z,11.02
2023-04-21T03:08:52.047Z,10.52
2023-04-21T03:11:19.297Z,9.65
2023-04-21T03:13:46.503Z,10.73
2023-04-21T03:16:13.922Z,10.13
2023-04-21T03:18:41.167Z,10.77
2023-04-21T03:21:09.726Z,11.02
2023-04-21T03:23:36.935Z,11.60
2023-04-21T03:26:07.043Z,11.07
2023-04-21T03:31:01.343Z,9.48
2023-04-21T03:33:28.574Z,10.25
2023-04-21T03:35:55.778Z,13.32
2023-04-21T03:38:24.295Z,11.27
2023-04-21T03:40:51.465Z,10.93
2023-04-21T03:43:18.652Z,11.23
2023-04-21T03:45:45.906Z,12.73
2023-04-21T03:48:13.178Z,11.60
2023-04-21T03:50:40.525Z,11.02
2023-04-21T03:53:07.716Z,12.63
2023-04-21T03:55:36.221Z,13.07
2023-04-21T03:58:03.478Z,13.45
2023-04-21T04:00:30.648Z,11.90
2023-04-21T04:02:57.982Z,11.80
2023-04-21T04:05:25.384Z,10.05
2023-04-21T04:07:52.632Z,10.98
2023-04-21T04:10:19.816Z,9.70
2023-04-21T04:12:48.495Z,9.98
2023-04-21T04:15:16.033Z,11.00
2023-04-21T04:17:43.272Z,10.18
2023-04-21T04:20:10.466Z,9.93
2023-04-21T04:22:37.785Z,9.65
2023-04-21T04:25:05.291Z,11.05
2023-04-21T04:27:33.148Z,9.63
2023-04-21T04:30:01.644Z,9.65
2023-04-21T04:32:29.116Z,9.00
2023-04-21T04:34:56.680Z,10.00
2023-04-21T04:37:25.216Z,8.45
2023-04-21T04:39:53.678Z,10.50
2023-04-21T04:42:21.116Z,8.98
2023-04-21T04:44:48.303Z,10.68
2023-04-21T04:47:16.841Z,12.02
2023-04-21T04:49:44.108Z,10.68
2023-04-21T04:52:11.312Z,9.70
2023-04-21T04:54:38.503Z,11.15
2023-04-21T04:57:06.026Z,11.25
2023-04-21T04:59:33.523Z,9.35
2023-04-21T05:02:00.866Z,9.63
2023-04-21T05:04:29.540Z,9.88
2023-04-21T05:06:56.900Z,9.48
2023-04-21T05:09:24.096Z,9.98
2023-04-21T05:11:51.292Z,9.80
2023-04-21T05:14:18.777Z,9.00
2023-04-21T05:16:46.223Z,9.45
2023-04-21T05:19:13.518Z,9.45
2023-04-21T05:21:42.018Z,9.15
2023-04-21T05:24:09.313Z,9.93
2023-04-21T05:26:36.505Z,11.07
2023-04-21T05:29:03.763Z,10.00
2023-04-21T05:31:30.997Z,10.63
2023-04-21T05:33:58.185Z,9.85
2023-04-21T05:36:25.717Z,9.77
2023-04-21T05:38:54.986Z,8.70
2023-04-21T05:41:22.511Z,9.73
2023-04-21T05:43:49.735Z,9.45
2023-04-21T05:46:16.940Z,10.00
2023-04-21T05:48:44.157Z,10.88
2023-04-21T05:51:11.516Z,8.73
2023-04-21T05:53:38.827Z,9.13
2023-04-21T05:56:09.054Z,8.70
2023-04-21T05:58:36.282Z,8.88
2023-04-21T06:01:03.474Z,8.77
2023-04-21T06:03:31.667Z,8.35
2023-04-21T06:05:59.980Z,8.05
2023-04-21T06:08:27.254Z,10.32
2023-04-21T06:10:54.591Z,8.85
2023-04-21T06:13:23.129Z,8.85
2023-04-21T06:15:50.491Z,9.95
2023-04-21T06:18:17.815Z,9.45
2023-04-21T06:20:50.490Z,9.40
2023-04-21T06:23:17.742Z,8.75
2023-04-21T06:25:44.990Z,8.63
2023-04-21T06:28:12.206Z,8.05
2023-04-21T06:30:40.811Z,8.20
2023-04-21T06:33:08.076Z,8.52
2023-04-21T06:35:35.329Z,7.90
2023-04-21T06:38:02.524Z,8.10
2023-04-21T06:40:29.697Z,8.07
2023-04-21T06:42:56.886Z,8.57
2023-04-21T06:45:24.268Z,8.45
2023-04-21T06:47:52.838Z,10.30
2023-04-21T06:50:20.094Z,8.23
2023-04-21T06:52:47.368Z,7.30
2023-04-21T06:55:14.710Z,7.40
2023-04-21T06:57:42.039Z,7.78
2023-04-21T07:00:09.845Z,7.28
2023-04-21T07:02:37.195Z,7.78
2023-04-21T07:05:06.246Z,8.52
2023-04-21T07:07:33.446Z,7.75
2023-04-21T07:10:00.698Z,9.75
2023-04-21T07:12:27.891Z,7.95
2023-04-21T07:14:55.206Z,10.55
2023-04-21T07:17:22.423Z,7.45
2023-04-21T07:19:49.618Z,7.18
2023-04-21T07:22:18.124Z,7.82
2023-04-21T07:24:45.327Z,9.70
2023-04-21T07:27:12.581Z,7.90
2023-04-21T07:29:39.808Z,7.45
2023-04-21T07:32:07.098Z,8.52
2023-04-21T07:34:34.324Z,7.68
2023-04-21T07:37:01.505Z,7.05
2023-04-21T07:39:30.026Z,9.68
2023-04-21T07:41:57.216Z,7.55
2023-04-21T07:44:24.483Z,7.75
2023-04-21T07:46:51.700Z,9.13
2023-04-21T07:49:19.050Z,7.30
2023-04-21T07:51:46.380Z,6.97
2023-04-21T07:54:13.630Z,7.03
2023-04-21T07:56:42.145Z,8.07
2023-04-21T07:59:09.355Z,6.68
2023-04-21T08:01:36.556Z,7.75
2023-04-21T08:04:03.949Z,8.52
2023-04-21T08:06:33.492Z,9.02
2023-04-21T08:09:00.985Z,7.40
2023-04-21T08:11:28.903Z,8.88
2023-04-21T08:13:57.607Z,8.85
2023-04-21T08:16:24.831Z,6.57
2023-04-21T08:18:52.103Z,8.02
2023-04-21T08:21:19.657Z,10.07
2023-04-21T08:23:46.938Z,9.18
2023-04-21T08:26:14.157Z,7.22
2023-04-21T08:28:41.394Z,7.35
2023-04-21T08:31:09.942Z,6.95
2023-04-21T08:33:43.851Z,6.47
2023-04-21T08:36:28.504Z,7.85
2023-04-21T08:38:56.934Z,7.63
2023-04-21T08:41:24.118Z,7.80
2023-04-21T08:43:51.373Z,9.95
2023-04-21T08:46:20.058Z,9.13
2023-04-21T08:48:47.405Z,7.15
2023-04-21T08:51:15.609Z,6.20
2023-04-21T08:56:10.598Z,8.10
2023-04-21T08:58:38.770Z,7.22
2023-04-21T09:01:06.358Z,7.10
2023-04-21T09:03:35.199Z,6.68
2023-04-21T09:06:03.443Z,7.53
2023-04-21T09:08:30.958Z,6.90
2023-04-21T09:10:58.416Z,6.72
2023-04-21T09:13:30.021Z,7.38
2023-04-21T09:15:57.248Z,7.57
2023-04-21T09:18:24.912Z,6.05
2023-04-21T09:20:53.856Z,6.60
2023-04-21T09:23:21.566Z,6.28
2023-04-21T09:25:48.760Z,8.15
2023-04-21T09:28:16.317Z,7.45
2023-04-21T09:30:43.613Z,5.78
2023-04-21T09:33:27.123Z,6.55
2023-04-21T09:35:57.846Z,8.63
2023-04-21T09:38:25.606Z,5.68
2023-04-21T09:40:57.531Z,6.13
2023-04-21T09:43:24.765Z,6.78
2023-04-21T09:45:51.985Z,7.93
2023-04-21T09:48:21.903Z,6.47
2023-04-21T09:55:48.661Z,6.95
2023-04-21T09:58:15.962Z,7.85
2023-04-21T10:00:43.212Z,6.50
2023-04-21T10:03:11.970Z,5.88
2023-04-21T10:05:42.153Z,8.63
2023-04-21T10:08:11.437Z,5.47
2023-04-21T10:10:38.852Z,5.78
2023-04-21T10:13:07.392Z,6.95
2023-04-21T10:15:35.697Z,6.13
2023-04-21T10:18:12.618Z,5.88
2023-04-21T10:20:51.146Z,6.43
2023-04-21T10:23:26.525Z,8.05
2023-04-21T10:25:53.788Z,9.38
2023-04-21T10:28:22.299Z,6.18
2023-04-21T10:30:49.527Z,9.00
2023-04-21T10:33:16.736Z,6.63
2023-04-21T10:35:58.905Z,7.72
2023-04-21T10:38:35.396Z,8.07
2023-04-21T10:41:09.527Z,9.20
2023-04-21T10:43:46.500Z,6.25
2023-04-21T10:46:34.927Z,6.45
2023-04-21T10:49:05.766Z,6.35
2023-04-21T10:51:33.720Z,6.90
2023-04-21T10:54:01.204Z,7.13
2023-04-21T10:56:29.473Z,7.10
2023-04-21T10:58:58.009Z,6.57
2023-04-21T11:01:25.302Z,7.03
2023-04-21T11:03:53.086Z,8.35
2023-04-21T11:06:20.758Z,5.40
2023-04-21T11:08:56.969Z,7.93
2023-04-21T11:11:24.726Z,6.97
2023-04-21T11:13:53.203Z,6.05
2023-04-21T11:16:21.753Z,6.10
2023-04-21T11:18:49.012Z,5.43
2023-04-21T11:21:17.916Z,6.28
2023-04-21T11:23:51.933Z,6.70
2023-04-21T11:26:20.169Z,6.30
2023-04-21T11:28:49.441Z,4.88
2023-04-21T11:31:16.734Z,6.20
2023-04-21T11:33:45.253Z,5.65
2023-04-21T11:36:12.451Z,4.55
2023-04-21T11:38:40.751Z,7.15
2023-04-21T11:41:09.303Z,4.50
2023-04-21T11:43:36.588Z,6.60
2023-04-21T11:46:13.753Z,5.20
2023-04-21T11:48:41.285Z,6.50
2023-04-21T11:51:16.045Z,6.70
2023-04-21T11:53:43.269Z,7.38
2023-04-21T11:56:10.744Z,6.50
2023-04-21T11:58:38.643Z,5.85
2023-04-21T12:01:08.436Z,6.30
2023-04-21T12:03:36.122Z,5.07
2023-04-21T12:06:03.507Z,5.32
2023-04-21T12:08:32.255Z,6.97
2023-04-21T12:10:59.735Z,5.95
2023-04-21T12:13:28.034Z,5.00
2023-04-21T12:15:55.295Z,4.78
2023-04-21T12:18:22.524Z,5.43
2023-04-21T12:20:49.955Z,3.88
2023-04-21T12:23:17.321Z,5.43
2023-04-21T12:25:46.833Z,4.35
2023-04-21T12:28:14.646Z,8.77
2023-04-21T12:30:42.592Z,5.53
2023-04-21T12:33:10.144Z,5.00
2023-04-21T12:35:37.442Z,7.07
2023-04-21T12:38:04.811Z,5.70
2023-04-21T12:40:32.055Z,6.93
2023-04-21T12:43:00.570Z,8.18
2023-04-21T12:45:27.864Z,5.15
2023-04-21T12:47:56.031Z,6.78
2023-04-21T12:50:23.309Z,5.55
2023-04-21T12:52:51.488Z,7.18
2023-04-21T12:55:18.768Z,4.10
2023-04-21T12:57:45.996Z,4.32
2023-04-21T13:00:15.788Z,3.97
2023-04-21T13:02:43.148Z,5.18
2023-04-21T13:05:12.568Z,6.90
2023-04-21T13:07:39.767Z,4.83
2023-04-21T13:10:07.488Z,5.78
2023-04-21T13:12:34.713Z,7.05
2023-04-21T13:15:01.978Z,4.10
2023-04-21T13:17:30.638Z,4.63
2023-04-21T13:19:57.913Z,5.55
2023-04-21T13:22:25.166Z,6.50
2023-04-21T13:24:52.359Z,6.22
2023-04-21T13:27:19.572Z,5.03
2023-04-21T13:29:47.592Z,5.45
2023-04-21T13:32:14.800Z,5.43
2023-04-21T13:34:43.356Z,5.18
2023-04-21T13:37:12.467Z,6.20
2023-04-21T13:39:39.864Z,4.82
2023-04-21T13:42:07.276Z,3.92
2023-04-21T13:44:34.516Z,6.13
2023-04-21T13:47:01.914Z,5.50
2023-04-21T13:49:29.349Z,3.38
2023-04-21T13:51:57.893Z,6.20
2023-04-21T13:54:26.147Z,3.97
2023-04-21T13:56:54.484Z,4.95
2023-04-21T13:59:21.720Z,5.80
2023-04-21T14:01:49.372Z,3.45
2023-04-21T14:04:16.817Z,3.83
2023-04-21T14:06:44.436Z,5.63
2023-04-21T14:09:12.992Z,5.18
2023-04-21T14:11:40.183Z,5.20
2023-04-21T14:14:09.950Z,4.72
2023-04-21T14:16:37.868Z,6.13
2023-04-21T14:19:05.284Z,4.40
2023-04-21T14:21:32.716Z,3.85
2023-04-21T14:24:00.218Z,4.10
2023-04-21T14:26:28.778Z,5.60
2023-04-21T14:28:56.354Z,4.70
2023-04-21T14:31:23.645Z,4.80
2023-04-21T14:33:50.919Z,5.07
2023-04-21T14:36:18.183Z,5.72
2023-04-21T14:38:45.383Z,6.47
2023-04-21T14:41:12.677Z,4.57
2023-04-21T14:43:41.222Z,5.15
2023-04-21T14:46:08.571Z,3.70
2023-04-21T14:48:35.888Z,5.60
2023-04-21T14:51:03.134Z,5.78
2023-04-21T14:53:30.383Z,4.25
2023-04-21T14:55:57.602Z,5.10
2023-04-21T14:58:24.792Z,6.40
2023-04-21T15:00:53.309Z,4.60
2023-04-21T15:03:20.678Z,5.20
2023-04-21T15:05:48.441Z,3.42
2023-04-21T15:08:18.077Z,5.30
2023-04-21T15:10:45.380Z,4.10
2023-04-21T15:13:12.612Z,4.18
2023-04-21T15:15:39.925Z,5.03
2023-04-21T15:18:08.827Z,4.53
2023-04-21T15:20:44.341Z,4.50
2023-04-21T15:23:12.934Z,3.90
2023-04-21T15:25:40.310Z,5.00
2023-04-21T15:28:08.433Z,4.07
2023-04-21T15:30:35.790Z,4.55
2023-04-21T15:33:03.187Z,4.65
2023-04-21T15:35:31.980Z,6.93
2023-04-21T15:37:59.250Z,6.47
2023-04-21T15:40:26.966Z,4.43
2023-04-21T15:42:54.230Z,4.95
2023-04-21T15:45:21.426Z,5.20
2023-04-21T15:47:48.798Z,5.38
2023-04-21T15:50:16.234Z,4.43
2023-04-21T15:52:44.750Z,5.75
2023-04-21T15:55:12.269Z,4.40
2023-04-21T15:57:39.563Z,5.28
2023-04-21T16:00:10.022Z,4.15
2023-04-21T16:02:37.446Z,5.50
2023-04-21T16:05:05.120Z,3.50
2023-04-21T16:07:32.488Z,6.15
2023-04-21T16:10:01.141Z,3.78
2023-04-21T16:12:28.382Z,4.57
2023-04-21T16:15:01.733Z,4.45
2023-04-21T16:17:33.781Z,4.65
2023-04-21T16:20:01.129Z,4.72
2023-04-21T16:22:28.341Z,4.38
2023-04-21T16:24:55.954Z,3.97
2023-04-21T16:27:24.605Z,3.83
2023-04-21T16:29:51.905Z,4.53
2023-04-21T16:32:19.296Z,4.88
2023-04-21T16:34:46.589Z,4.18
2023-04-21T16:37:13.881Z,4.97
2023-04-21T16:39:41.161Z,5.28
2023-04-21T16:42:08.376Z,3.90
2023-04-21T16:44:37.039Z,4.63
2023-04-21T16:47:04.557Z,4.47
2023-04-21T16:49:31.932Z,4.22
2023-04-21T16:51:59.202Z,4.68
2023-04-21T16:54:26.425Z,4.50
2023-04-21T16:56:53.620Z,4.22
2023-04-21T16:59:21.266Z,4.45
2023-04-21T17:01:49.868Z,5.55
2023-04-21T17:04:17.243Z,3.63
2023-04-21T17:06:44.550Z,5.00
2023-04-21T17:09:11.761Z,4.03
2023-04-21T17:11:40.177Z,5.80
2023-04-21T17:14:07.543Z,5.63
2023-04-21T17:16:34.778Z,5.45
2023-04-21T17:19:03.442Z,6.22
2023-04-21T17:21:31.602Z,4.88
2023-04-21T17:23:58.819Z,5.05
2023-04-21T17:26:26.348Z,3.95
2023-04-21T17:28:53.560Z,3.40
2023-04-21T17:31:20.816Z,5.55
2023-04-21T17:33:48.098Z,3.67
2023-04-21T17:36:16.883Z,3.25
2023-04-21T17:38:44.252Z,3.78
2023-04-21T17:41:11.613Z,5.13
2023-04-21T17:43:38.922Z,3.53
2023-04-21T17:46:06.424Z,3.42
2023-04-21T17:48:33.713Z,3.47
2023-04-21T17:51:00.996Z,3.80
2023-04-21T17:53:29.516Z,4.10
2023-04-21T17:55:56.746Z,6.10
2023-04-21T17:58:24.104Z,6.32
2023-04-21T18:00:51.322Z,3.80
2023-04-21T18:03:18.807Z,4.05
2023-04-21T18:05:46.159Z,4.47
2023-04-21T18:08:13.782Z,4.75
2023-04-21T18:10:42.340Z,4.60
2023-04-21T18:13:10.298Z,4.00
2023-04-21T18:15:37.574Z,4.85
2023-04-21T18:18:04.977Z,5.55
2023-04-21T18:20:32.189Z,4.30
2023-04-21T18:22:59.648Z,5.25
2023-04-21T18:25:40.665Z,4.10
2023-04-21T18:28:12.340Z,5.10
2023-04-21T18:30:39.920Z,5.70
2023-04-21T18:33:07.258Z,4.82
2023-04-21T18:35:34.601Z,4.75
2023-04-21T18:38:01.875Z,5.50
2023-04-21T18:40:29.124Z,6.55
2023-04-21T18:42:56.787Z,4.18
2023-04-21T18:45:25.341Z,4.25
2023-04-21T18:47:52.594Z,4.82
2023-04-21T18:50:19.970Z,4.60
2023-04-21T18:52:47.181Z,4.50
2023-04-21T18:55:14.616Z,3.97
2023-04-21T18:57:41.914Z,4.15
2023-04-21T19:00:09.846Z,3.80
2023-04-21T19:02:39.343Z,3.80
2023-04-21T19:05:07.090Z,6.00
2023-04-21T19:07:34.832Z,4.88
2023-04-21T19:10:02.282Z,4.32
2023-04-21T19:12:29.494Z,4.60
2023-04-21T19:14:56.694Z,4.25
2023-04-21T19:17:24.009Z,4.45
2023-04-21T19:19:52.616Z,4.75
2023-04-21T19:22:20.556Z,3.67
2023-04-21T19:24:47.880Z,4.03
2023-04-21T19:27:15.162Z,4.65
2023-04-21T19:29:42.453Z,4.00
2023-04-21T19:32:09.825Z,4.13
2023-04-21T19:34:37.511Z,4.00
2023-04-21T19:37:06.482Z,4.50
2023-04-21T19:39:33.734Z,4.65
2023-04-21T19:42:00.940Z,5.70
2023-04-21T19:44:28.219Z,4.38
2023-04-21T19:46:55.427Z,3.70
2023-04-21T19:49:22.663Z,3.65
2023-04-21T19:51:49.897Z,4.50
2023-04-21T19:54:18.444Z,4.15
2023-04-21T19:56:45.674Z,4.35
2023-04-21T19:59:12.917Z,5.32
2023-04-21T20:01:40.185Z,4.85
2023-04-21T20:04:09.315Z,4.50
2023-04-21T20:06:39.026Z,4.57
2023-04-21T20:09:06.414Z,3.97
2023-04-21T20:11:34.992Z,4.10
2023-04-21T20:14:02.233Z,4.80
2023-04-21T20:16:29.516Z,4.95
2023-04-21T20:18:56.881Z,4.93
2023-04-21T20:21:24.095Z,5.10
2023-04-21T20:23:51.301Z,4.78
2023-04-21T20:26:18.516Z,3.72
2023-04-21T20:28:47.035Z,3.70
2023-04-21T20:31:14.413Z,3.60
2023-04-21T20:33:41.687Z,3.83
2023-04-21T20:36:08.905Z,4.25
2023-04-21T20:38:36.134Z,4.60
2023-04-21T20:41:03.423Z,3.78
2023-04-21T20:43:32.911Z,3.45
2023-04-21T20:46:01.792Z,4.00
2023-04-21T20:48:29.019Z,3.78
2023-04-21T20:50:56.334Z,3.58
2023-04-21T20:53:23.651Z,3.97
2023-04-21T20:55:51.089Z,4.47
2023-04-21T20:58:18.307Z,3.50
2023-04-21T21:00:45.608Z,5.15
2023-04-21T21:03:14.342Z,4.55
2023-04-21T21:05:41.683Z,4.05
2023-04-21T21:08:08.990Z,3.80
2023-04-21T21:10:36.287Z,3.88
2023-04-21T21:13:03.559Z,3.70
2023-04-21T21:15:31.357Z,4.30
2023-04-21T21:17:58.758Z,5.55
2023-04-21T21:20:27.394Z,3.67
2023-04-21T21:22:54.601Z,3.70
2023-04-21T21:25:21.941Z,3.65
2023-04-21T21:27:49.158Z,4.47
2023-04-21T21:30:16.414Z,5.50
2023-04-21T21:32:43.683Z,3.75
2023-04-21T21:35:11.753Z,5.40
2023-04-21T21:37:40.311Z,3.78
2023-04-21T21:40:08.328Z,3.53
2023-04-21T21:42:35.514Z,4.72
2023-04-21T21:45:02.730Z,3.35
2023-04-21T21:47:29.938Z,4.80
2023-04-21T21:49:58.770Z,3.88
2023-04-21T21:52:26.417Z,4.05
2023-04-21T21:54:55.125Z,3.72
2023-04-21T21:57:22.413Z,3.65
2023-04-21T21:59:49.770Z,3.70
2023-04-21T22:02:17.025Z,5.85
2023-04-21T22:04:44.368Z,3.90
2023-04-21T22:07:11.706Z,5.97
2023-04-21T22:09:39.762Z,3.65
2023-04-21T22:12:08.812Z,5.30
2023-04-21T22:14:36.274Z,3.67
2023-04-21T22:17:03.738Z,5.05
2023-04-21T22:19:30.968Z,4.50
2023-04-21T22:21:58.180Z,3.42
2023-04-21T22:24:25.384Z,3.33
2023-04-21T22:26:52.566Z,3.53
2023-04-21T22:29:21.172Z,3.55
2023-04-21T22:31:48.504Z,3.83
2023-04-21T22:34:16.638Z,3.42
2023-04-21T22:36:44.176Z,5.72
2023-04-21T22:39:11.534Z,3.83
2023-04-21T22:41:38.876Z,4.30
2023-04-21T22:44:06.066Z,3.80
2023-04-21T22:46:34.703Z,4.28
2023-04-21T22:49:02.192Z,3.85
2023-04-21T22:51:32.378Z,3.53
2023-04-21T22:54:00.062Z,4.10
2023-04-21T22:56:27.270Z,4.50
2023-04-21T22:58:54.549Z,4.25
2023-04-21T23:01:21.838Z,3.45
2023-04-21T23:03:50.631Z,4.53
2023-04-21T23:06:17.890Z,4.82
2023-04-21T23:08:45.129Z,4.53
2023-04-21T23:11:12.845Z,5.75
2023-04-21T23:13:40.473Z,5.43
2023-04-21T23:16:07.758Z,3.75
2023-04-21T23:18:35.720Z,3.67
2023-04-21T23:21:04.312Z,4.40
2023-04-21T23:23:31.562Z,4.68
2023-04-21T23:25:58.769Z,3.95
2023-04-21T23:28:26.071Z,4.00
2023-04-21T23:30:53.306Z,3.33
2023-04-21T23:33:20.623Z,3.75
2023-04-21T23:35:48.016Z,4.63
2023-04-21T23:38:16.505Z,4.55
2023-04-21T23:40:43.718Z,4.35
2023-04-21T23:43:10.911Z,5.20
2023-04-21T23:45:38.181Z,5.22
2023-04-21T23:48:05.569Z,4.88
2023-04-21T23:50:32.808Z,4.15
2023-04-21T23:53:00.053Z,4.25
2023-04-21T23:55:28.596Z,4.30
2023-04-21T23:57:55.775Z,3.42
